sensor_id;sensor_type;location;lat;lon;timestamp;P1;P2;P0
44350;PMS5003;62766;62.622;17.912;2023-06-22T00:00:01;24;22;
44350;PMS5003;62766;62.622;17.912;2023-06-22T00:02:29;24;24;
44350;PMS5003;62766;62.622;17.912;2023-06-22T00:04:58;24;24;
44350;PMS5003;62766;62.622;17.912;2023-06-22T00:07:27;29;28;
44350;PMS5003;62766;62.622;17.912;2023-06-22T00:09:55;33;32;
44350;PMS5003;62766;62.622;17.912;2023-06-22T00:12:25;26;26;
44350;PMS5003;62766;62.622;17.912;2023-06-22T00:14:53;27;27;
44350;PMS5003;62766;62.622;17.912;2023-06-22T00:17:23;26;25;
44350;PMS5003;62766;62.622;17.912;2023-06-22T00:19:51;28;28;
44350;PMS5003;62766;62.622;17.912;2023-06-22T00:22:19;34;34;
44350;PMS5003;62766;62.622;17.912;2023-06-22T00:24:48;23;23;
44350;PMS5003;62766;62.622;17.912;2023-06-22T00:27:17;29;29;
44350;PMS5003;62766;62.622;17.912;2023-06-22T00:29:47;35;34;
44350;PMS5003;62766;62.622;17.912;2023-06-22T00:32:15;30;28;
44350;PMS5003;62766;62.622;17.912;2023-06-22T00:34:44;25;25;
44350;PMS5003;62766;62.622;17.912;2023-06-22T00:37:13;33;31;
44350;PMS5003;62766;62.622;17.912;2023-06-22T00:39:42;30;30;
44350;PMS5003;62766;62.622;17.912;2023-06-22T00:42:11;34;32;
44350;PMS5003;62766;62.622;17.912;2023-06-22T00:44:40;41;41;
44350;PMS5003;62766;62.622;17.912;2023-06-22T00:47:08;35;35;
44350;PMS5003;62766;62.622;17.912;2023-06-22T00:49:38;43;43;
44350;PMS5003;62766;62.622;17.912;2023-06-22T00:52:07;43;41;
44350;PMS5003;62766;62.622;17.912;2023-06-22T00:54:37;42;42;
44350;PMS5003;62766;62.622;17.912;2023-06-22T00:57:06;38;38;
44350;PMS5003;62766;62.622;17.912;2023-06-22T00:59:34;42;42;
44350;PMS5003;62766;62.622;17.912;2023-06-22T01:02:03;37;37;
44350;PMS5003;62766;62.622;17.912;2023-06-22T01:04:34;39;39;
44350;PMS5003;62766;62.622;17.912;2023-06-22T01:07:06;47;44;
44350;PMS5003;62766;62.622;17.912;2023-06-22T01:09:44;42;42;
44350;PMS5003;62766;62.622;17.912;2023-06-22T01:12:19;35;34;
44350;PMS5003;62766;62.622;17.912;2023-06-22T01:14:49;35;35;
44350;PMS5003;62766;62.622;17.912;2023-06-22T01:17:23;41;41;
44350;PMS5003;62766;62.622;17.912;2023-06-22T01:19:54;35;35;
44350;PMS5003;62766;62.622;17.912;2023-06-22T01:22:23;39;39;
44350;PMS5003;62766;62.622;17.912;2023-06-22T01:24:59;39;37;
44350;PMS5003;62766;62.622;17.912;2023-06-22T01:27:39;33;33;
44350;PMS5003;62766;62.622;17.912;2023-06-22T01:30:16;36;36;
44350;PMS5003;62766;62.622;17.912;2023-06-22T01:32:47;44;44;
44350;PMS5003;62766;62.622;17.912;2023-06-22T01:35:17;38;38;
44350;PMS5003;62766;62.622;17.912;2023-06-22T01:37:47;39;39;
44350;PMS5003;62766;62.622;17.912;2023-06-22T01:40:18;33;33;
44350;PMS5003;62766;62.622;17.912;2023-06-22T01:42:48;35;35;
44350;PMS5003;62766;62.622;17.912;2023-06-22T01:45:19;39;39;
44350;PMS5003;62766;62.622;17.912;2023-06-22T01:47:47;34;34;
44350;PMS5003;62766;62.622;17.912;2023-06-22T01:50:17;33;33;
44350;PMS5003;62766;62.622;17.912;2023-06-22T01:52:46;36;34;
44350;PMS5003;62766;62.622;17.912;2023-06-22T01:55:13;25;25;
44350;PMS5003;62766;62.622;17.912;2023-06-22T01:57:42;34;34;
44350;PMS5003;62766;62.622;17.912;2023-06-22T02:00:11;31;31;
44350;PMS5003;62766;62.622;17.912;2023-06-22T02:02:43;36;34;
44350;PMS5003;62766;62.622;17.912;2023-06-22T02:05:20;34;34;
44350;PMS5003;62766;62.622;17.912;2023-06-22T02:07:52;31;31;
44350;PMS5003;62766;62.622;17.912;2023-06-22T02:10:28;34;34;
44350;PMS5003;62766;62.622;17.912;2023-06-22T02:12:58;33;32;
44350;PMS5003;62766;62.622;17.912;2023-06-22T02:15:28;40;40;
44350;PMS5003;62766;62.622;17.912;2023-06-22T02:17:57;33;33;
44350;PMS5003;62766;62.622;17.912;2023-06-22T02:20:26;38;38;
44350;PMS5003;62766;62.622;17.912;2023-06-22T02:22:55;35;35;
44350;PMS5003;62766;62.622;17.912;2023-06-22T02:25:24;28;27;
44350;PMS5003;62766;62.622;17.912;2023-06-22T02:27:52;30;30;
44350;PMS5003;62766;62.622;17.912;2023-06-22T02:30:21;32;32;
44350;PMS5003;62766;62.622;17.912;2023-06-22T02:32:50;31;30;
44350;PMS5003;62766;62.622;17.912;2023-06-22T02:35:18;31;29;
44350;PMS5003;62766;62.622;17.912;2023-06-22T02:37:46;29;29;
44350;PMS5003;62766;62.622;17.912;2023-06-22T02:40:14;35;34;
44350;PMS5003;62766;62.622;17.912;2023-06-22T02:42:42;35;35;
44350;PMS5003;62766;62.622;17.912;2023-06-22T02:45:11;31;29;
44350;PMS5003;62766;62.622;17.912;2023-06-22T02:47:40;30;30;
44350;PMS5003;62766;62.622;17.912;2023-06-22T02:50:09;35;34;
44350;PMS5003;62766;62.622;17.912;2023-06-22T02:52:38;36;36;
44350;PMS5003;62766;62.622;17.912;2023-06-22T02:55:07;41;39;
44350;PMS5003;62766;62.622;17.912;2023-06-22T02:57:36;35;35;
44350;PMS5003;62766;62.622;17.912;2023-06-22T03:00:06;35;35;
44350;PMS5003;62766;62.622;17.912;2023-06-22T03:02:35;35;35;
44350;PMS5003;62766;62.622;17.912;2023-06-22T03:05:05;31;31;
44350;PMS5003;62766;62.622;17.912;2023-06-22T03:07:33;30;30;
44350;PMS5003;62766;62.622;17.912;2023-06-22T03:10:02;33;33;
44350;PMS5003;62766;62.622;17.912;2023-06-22T03:12:31;29;27;
44350;PMS5003;62766;62.622;17.912;2023-06-22T03:14:59;40;38;
44350;PMS5003;62766;62.622;17.912;2023-06-22T03:17:29;37;37;
44350;PMS5003;62766;62.622;17.912;2023-06-22T03:19:58;35;35;
44350;PMS5003;62766;62.622;17.912;2023-06-22T03:22:26;32;32;
44350;PMS5003;62766;62.622;17.912;2023-06-22T03:24:54;31;31;
44350;PMS5003;62766;62.622;17.912;2023-06-22T03:27:24;42;41;
44350;PMS5003;62766;62.622;17.912;2023-06-22T03:29:52;32;32;
44350;PMS5003;62766;62.622;17.912;2023-06-22T03:32:19;38;37;
44350;PMS5003;62766;62.622;17.912;2023-06-22T03:34:49;36;36;
44350;PMS5003;62766;62.622;17.912;2023-06-22T03:37:17;38;38;
44350;PMS5003;62766;62.622;17.912;2023-06-22T03:39:47;38;38;
44350;PMS5003;62766;62.622;17.912;2023-06-22T03:42:15;41;39;
44350;PMS5003;62766;62.622;17.912;2023-06-22T03:44:44;37;37;
44350;PMS5003;62766;62.622;17.912;2023-06-22T03:47:12;41;40;
44350;PMS5003;62766;62.622;17.912;2023-06-22T03:49:42;37;37;
44350;PMS5003;62766;62.622;17.912;2023-06-22T03:52:10;48;46;
44350;PMS5003;62766;62.622;17.912;2023-06-22T03:54:39;37;37;
44350;PMS5003;62766;62.622;17.912;2023-06-22T03:57:07;42;41;
44350;PMS5003;62766;62.622;17.912;2023-06-22T03:59:35;42;42;
44350;PMS5003;62766;62.622;17.912;2023-06-22T04:03:35;38;37;
44350;PMS5003;62766;62.622;17.912;2023-06-22T04:06:03;46;43;
44350;PMS5003;62766;62.622;17.912;2023-06-22T04:08:32;40;39;
44350;PMS5003;62766;62.622;17.912;2023-06-22T04:10:59;39;38;
44350;PMS5003;62766;62.622;17.912;2023-06-22T04:13:28;38;38;
44350;PMS5003;62766;62.622;17.912;2023-06-22T04:15:56;44;43;
44350;PMS5003;62766;62.622;17.912;2023-06-22T04:18:25;41;41;
44350;PMS5003;62766;62.622;17.912;2023-06-22T04:20:53;40;40;
44350;PMS5003;62766;62.622;17.912;2023-06-22T04:23:22;39;39;
44350;PMS5003;62766;62.622;17.912;2023-06-22T04:25:49;40;40;
44350;PMS5003;62766;62.622;17.912;2023-06-22T04:28:18;42;42;
44350;PMS5003;62766;62.622;17.912;2023-06-22T04:30:47;36;36;
44350;PMS5003;62766;62.622;17.912;2023-06-22T04:33:17;48;47;
44350;PMS5003;62766;62.622;17.912;2023-06-22T04:35:45;43;42;
44350;PMS5003;62766;62.622;17.912;2023-06-22T04:38:15;43;42;
44350;PMS5003;62766;62.622;17.912;2023-06-22T04:40:44;51;48;
44350;PMS5003;62766;62.622;17.912;2023-06-22T04:43:12;44;44;
44350;PMS5003;62766;62.622;17.912;2023-06-22T04:45:40;48;47;
44350;PMS5003;62766;62.622;17.912;2023-06-22T04:48:09;52;51;
44350;PMS5003;62766;62.622;17.912;2023-06-22T04:50:37;41;41;
44350;PMS5003;62766;62.622;17.912;2023-06-22T04:53:06;42;39;
44350;PMS5003;62766;62.622;17.912;2023-06-22T04:55:35;38;38;
44350;PMS5003;62766;62.622;17.912;2023-06-22T04:58:03;36;36;
44350;PMS5003;62766;62.622;17.912;2023-06-22T05:00:31;46;44;
44350;PMS5003;62766;62.622;17.912;2023-06-22T05:03:00;36;35;
44350;PMS5003;62766;62.622;17.912;2023-06-22T05:05:28;35;33;
44350;PMS5003;62766;62.622;17.912;2023-06-22T05:07:56;34;33;
44350;PMS5003;62766;62.622;17.912;2023-06-22T05:10:26;38;36;
44350;PMS5003;62766;62.622;17.912;2023-06-22T05:12:55;34;32;
44350;PMS5003;62766;62.622;17.912;2023-06-22T05:15:23;27;27;
44350;PMS5003;62766;62.622;17.912;2023-06-22T05:17:52;32;32;
44350;PMS5003;62766;62.622;17.912;2023-06-22T05:20:21;34;33;
44350;PMS5003;62766;62.622;17.912;2023-06-22T05:22:50;30;29;
44350;PMS5003;62766;62.622;17.912;2023-06-22T05:25:19;33;32;
44350;PMS5003;62766;62.622;17.912;2023-06-22T05:27:48;26;26;
44350;PMS5003;62766;62.622;17.912;2023-06-22T05:30:17;31;29;
44350;PMS5003;62766;62.622;17.912;2023-06-22T05:32:45;29;28;
44350;PMS5003;62766;62.622;17.912;2023-06-22T05:35:14;30;28;
44350;PMS5003;62766;62.622;17.912;2023-06-22T05:37:42;32;30;
44350;PMS5003;62766;62.622;17.912;2023-06-22T05:40:11;37;36;
44350;PMS5003;62766;62.622;17.912;2023-06-22T05:42:40;24;24;
44350;PMS5003;62766;62.622;17.912;2023-06-22T05:45:09;25;25;
44350;PMS5003;62766;62.622;17.912;2023-06-22T05:47:38;26;26;
44350;PMS5003;62766;62.622;17.912;2023-06-22T05:50:07;29;29;
44350;PMS5003;62766;62.622;17.912;2023-06-22T05:52:36;31;31;
44350;PMS5003;62766;62.622;17.912;2023-06-22T05:55:05;24;22;
44350;PMS5003;62766;62.622;17.912;2023-06-22T05:57:34;27;27;
44350;PMS5003;62766;62.622;17.912;2023-06-22T06:00:03;26;26;
44350;PMS5003;62766;62.622;17.912;2023-06-22T06:02:33;33;32;
44350;PMS5003;62766;62.622;17.912;2023-06-22T06:05:02;39;37;
44350;PMS5003;62766;62.622;17.912;2023-06-22T06:07:31;32;30;
44350;PMS5003;62766;62.622;17.912;2023-06-22T06:10:00;28;27;
44350;PMS5003;62766;62.622;17.912;2023-06-22T06:12:28;36;36;
44350;PMS5003;62766;62.622;17.912;2023-06-22T06:14:57;31;30;
44350;PMS5003;62766;62.622;17.912;2023-06-22T06:17:25;36;36;
44350;PMS5003;62766;62.622;17.912;2023-06-22T06:19:54;38;38;
44350;PMS5003;62766;62.622;17.912;2023-06-22T06:22:22;36;34;
44350;PMS5003;62766;62.622;17.912;2023-06-22T06:24:50;34;34;
44350;PMS5003;62766;62.622;17.912;2023-06-22T06:27:20;38;37;
44350;PMS5003;62766;62.622;17.912;2023-06-22T06:29:49;30;30;
44350;PMS5003;62766;62.622;17.912;2023-06-22T06:32:17;32;30;
44350;PMS5003;62766;62.622;17.912;2023-06-22T06:34:46;30;30;
44350;PMS5003;62766;62.622;17.912;2023-06-22T06:37:14;24;24;
44350;PMS5003;62766;62.622;17.912;2023-06-22T06:39:42;28;28;
44350;PMS5003;62766;62.622;17.912;2023-06-22T06:42:10;33;33;
44350;PMS5003;62766;62.622;17.912;2023-06-22T06:44:40;22;22;
44350;PMS5003;62766;62.622;17.912;2023-06-22T06:47:09;25;25;
44350;PMS5003;62766;62.622;17.912;2023-06-22T06:49:37;26;25;
44350;PMS5003;62766;62.622;17.912;2023-06-22T06:52:06;33;31;
44350;PMS5003;62766;62.622;17.912;2023-06-22T06:54:35;29;29;
44350;PMS5003;62766;62.622;17.912;2023-06-22T06:57:04;21;21;
44350;PMS5003;62766;62.622;17.912;2023-06-22T06:59:33;25;25;
44350;PMS5003;62766;62.622;17.912;2023-06-22T07:02:01;28;28;
44350;PMS5003;62766;62.622;17.912;2023-06-22T07:04:30;24;24;
44350;PMS5003;62766;62.622;17.912;2023-06-22T07:07:00;24;24;
44350;PMS5003;62766;62.622;17.912;2023-06-22T07:09:31;29;28;
44350;PMS5003;62766;62.622;17.912;2023-06-22T07:11:59;26;24;
44350;PMS5003;62766;62.622;17.912;2023-06-22T07:14:27;33;33;
44350;PMS5003;62766;62.622;17.912;2023-06-22T07:16:55;32;31;
44350;PMS5003;62766;62.622;17.912;2023-06-22T07:19:24;26;25;
44350;PMS5003;62766;62.622;17.912;2023-06-22T07:21:54;27;27;
44350;PMS5003;62766;62.622;17.912;2023-06-22T07:24:23;35;33;
44350;PMS5003;62766;62.622;17.912;2023-06-22T07:26:53;29;29;
44350;PMS5003;62766;62.622;17.912;2023-06-22T07:29:21;30;30;
44350;PMS5003;62766;62.622;17.912;2023-06-22T07:31:50;31;31;
44350;PMS5003;62766;62.622;17.912;2023-06-22T07:34:19;36;34;
44350;PMS5003;62766;62.622;17.912;2023-06-22T07:36:48;37;36;
44350;PMS5003;62766;62.622;17.912;2023-06-22T07:39:17;36;34;
44350;PMS5003;62766;62.622;17.912;2023-06-22T07:41:46;40;40;
44350;PMS5003;62766;62.622;17.912;2023-06-22T07:44:14;36;33;
44350;PMS5003;62766;62.622;17.912;2023-06-22T07:46:42;33;32;
44350;PMS5003;62766;62.622;17.912;2023-06-22T07:49:11;39;39;
44350;PMS5003;62766;62.622;17.912;2023-06-22T07:51:40;34;34;
44350;PMS5003;62766;62.622;17.912;2023-06-22T07:54:09;31;29;
44350;PMS5003;62766;62.622;17.912;2023-06-22T07:56:38;36;36;
44350;PMS5003;62766;62.622;17.912;2023-06-22T07:59:06;41;41;
44350;PMS5003;62766;62.622;17.912;2023-06-22T08:01:34;37;36;
44350;PMS5003;62766;62.622;17.912;2023-06-22T08:04:02;35;35;
44350;PMS5003;62766;62.622;17.912;2023-06-22T08:06:32;40;40;
44350;PMS5003;62766;62.622;17.912;2023-06-22T08:09:00;33;33;
44350;PMS5003;62766;62.622;17.912;2023-06-22T08:11:29;37;35;
44350;PMS5003;62766;62.622;17.912;2023-06-22T08:13:58;31;31;
44350;PMS5003;62766;62.622;17.912;2023-06-22T08:16:27;33;32;
44350;PMS5003;62766;62.622;17.912;2023-06-22T08:18:56;37;37;
44350;PMS5003;62766;62.622;17.912;2023-06-22T08:21:25;37;35;
44350;PMS5003;62766;62.622;17.912;2023-06-22T08:23:53;42;40;
44350;PMS5003;62766;62.622;17.912;2023-06-22T08:26:22;33;33;
44350;PMS5003;62766;62.622;17.912;2023-06-22T08:28:49;32;32;
44350;PMS5003;62766;62.622;17.912;2023-06-22T08:31:18;28;27;
44350;PMS5003;62766;62.622;17.912;2023-06-22T08:33:47;33;32;
44350;PMS5003;62766;62.622;17.912;2023-06-22T08:36:16;31;29;
44350;PMS5003;62766;62.622;17.912;2023-06-22T08:38:46;35;35;
44350;PMS5003;62766;62.622;17.912;2023-06-22T08:41:15;41;39;
44350;PMS5003;62766;62.622;17.912;2023-06-22T08:43:42;42;41;
44350;PMS5003;62766;62.622;17.912;2023-06-22T08:46:10;36;36;
44350;PMS5003;62766;62.622;17.912;2023-06-22T08:48:39;46;44;
44350;PMS5003;62766;62.622;17.912;2023-06-22T08:51:07;51;48;
44350;PMS5003;62766;62.622;17.912;2023-06-22T08:53:35;40;40;
44350;PMS5003;62766;62.622;17.912;2023-06-22T08:56:04;43;39;
44350;PMS5003;62766;62.622;17.912;2023-06-22T08:58:32;53;53;
44350;PMS5003;62766;62.622;17.912;2023-06-22T09:01:02;49;49;
44350;PMS5003;62766;62.622;17.912;2023-06-22T09:03:30;42;42;
44350;PMS5003;62766;62.622;17.912;2023-06-22T09:05:58;48;47;
44350;PMS5003;62766;62.622;17.912;2023-06-22T09:08:27;57;57;
44350;PMS5003;62766;62.622;17.912;2023-06-22T09:10:55;53;52;
44350;PMS5003;62766;62.622;17.912;2023-06-22T09:13:25;57;56;
44350;PMS5003;62766;62.622;17.912;2023-06-22T09:15:54;46;46;
44350;PMS5003;62766;62.622;17.912;2023-06-22T09:18:22;49;49;
44350;PMS5003;62766;62.622;17.912;2023-06-22T09:20:50;35;35;
44350;PMS5003;62766;62.622;17.912;2023-06-22T09:23:19;33;33;
44350;PMS5003;62766;62.622;17.912;2023-06-22T09:25:47;25;25;
44350;PMS5003;62766;62.622;17.912;2023-06-22T09:28:16;31;28;
44350;PMS5003;62766;62.622;17.912;2023-06-22T09:30:45;30;30;
44350;PMS5003;62766;62.622;17.912;2023-06-22T09:33:14;24;24;
44350;PMS5003;62766;62.622;17.912;2023-06-22T09:35:43;25;25;
44350;PMS5003;62766;62.622;17.912;2023-06-22T09:38:11;25;25;
44350;PMS5003;62766;62.622;17.912;2023-06-22T09:40:40;28;28;
44350;PMS5003;62766;62.622;17.912;2023-06-22T09:43:10;24;24;
44350;PMS5003;62766;62.622;17.912;2023-06-22T09:45:38;30;25;
44350;PMS5003;62766;62.622;17.912;2023-06-22T09:48:07;28;28;
44350;PMS5003;62766;62.622;17.912;2023-06-22T09:50:35;27;24;
44350;PMS5003;62766;62.622;17.912;2023-06-22T09:53:04;25;25;
44350;PMS5003;62766;62.622;17.912;2023-06-22T09:55:32;25;24;
44350;PMS5003;62766;62.622;17.912;2023-06-22T09:58:00;27;27;
44350;PMS5003;62766;62.622;17.912;2023-06-22T10:03:38;29;29;
44350;PMS5003;62766;62.622;17.912;2023-06-22T10:06:07;36;34;
44350;PMS5003;62766;62.622;17.912;2023-06-22T10:08:36;33;32;
44350;PMS5003;62766;62.622;17.912;2023-06-22T10:11:05;33;31;
44350;PMS5003;62766;62.622;17.912;2023-06-22T10:13:34;26;26;
44350;PMS5003;62766;62.622;17.912;2023-06-22T10:16:02;29;28;
44350;PMS5003;62766;62.622;17.912;2023-06-22T10:18:31;28;27;
44350;PMS5003;62766;62.622;17.912;2023-06-22T10:21:00;33;31;
44350;PMS5003;62766;62.622;17.912;2023-06-22T10:23:29;34;34;
44350;PMS5003;62766;62.622;17.912;2023-06-22T10:25:58;30;30;
44350;PMS5003;62766;62.622;17.912;2023-06-22T10:28:26;30;28;
44350;PMS5003;62766;62.622;17.912;2023-06-22T10:30:54;38;37;
44350;PMS5003;62766;62.622;17.912;2023-06-22T10:33:24;34;32;
44350;PMS5003;62766;62.622;17.912;2023-06-22T10:35:52;36;35;
44350;PMS5003;62766;62.622;17.912;2023-06-22T10:38:21;29;29;
44350;PMS5003;62766;62.622;17.912;2023-06-22T10:40:48;31;31;
44350;PMS5003;62766;62.622;17.912;2023-06-22T10:43:18;35;34;
44350;PMS5003;62766;62.622;17.912;2023-06-22T10:45:46;35;33;
44350;PMS5003;62766;62.622;17.912;2023-06-22T10:48:16;28;27;
44350;PMS5003;62766;62.622;17.912;2023-06-22T10:50:44;33;31;
44350;PMS5003;62766;62.622;17.912;2023-06-22T10:53:12;33;30;
44350;PMS5003;62766;62.622;17.912;2023-06-22T10:55:41;31;30;
44350;PMS5003;62766;62.622;17.912;2023-06-22T10:58:09;37;37;
44350;PMS5003;62766;62.622;17.912;2023-06-22T11:00:37;35;33;
44350;PMS5003;62766;62.622;17.912;2023-06-22T11:03:05;33;33;
44350;PMS5003;62766;62.622;17.912;2023-06-22T11:05:34;35;32;
44350;PMS5003;62766;62.622;17.912;2023-06-22T11:08:02;30;30;
44350;PMS5003;62766;62.622;17.912;2023-06-22T11:10:30;33;33;
44350;PMS5003;62766;62.622;17.912;2023-06-22T11:12:59;35;35;
44350;PMS5003;62766;62.622;17.912;2023-06-22T11:15:28;31;28;
44350;PMS5003;62766;62.622;17.912;2023-06-22T11:17:57;31;30;
44350;PMS5003;62766;62.622;17.912;2023-06-22T11:20:27;33;33;
44350;PMS5003;62766;62.622;17.912;2023-06-22T11:22:56;31;31;
44350;PMS5003;62766;62.622;17.912;2023-06-22T11:25:24;31;31;
44350;PMS5003;62766;62.622;17.912;2023-06-22T11:27:52;30;30;
44350;PMS5003;62766;62.622;17.912;2023-06-22T11:30:21;38;38;
44350;PMS5003;62766;62.622;17.912;2023-06-22T11:32:50;31;31;
44350;PMS5003;62766;62.622;17.912;2023-06-22T11:35:19;33;33;
44350;PMS5003;62766;62.622;17.912;2023-06-22T11:37:47;33;33;
44350;PMS5003;62766;62.622;17.912;2023-06-22T11:40:15;35;34;
44350;PMS5003;62766;62.622;17.912;2023-06-22T11:42:44;31;31;
44350;PMS5003;62766;62.622;17.912;2023-06-22T11:45:13;38;37;
44350;PMS5003;62766;62.622;17.912;2023-06-22T11:47:42;40;40;
44350;PMS5003;62766;62.622;17.912;2023-06-22T11:50:09;31;31;
44350;PMS5003;62766;62.622;17.912;2023-06-22T11:52:38;35;35;
44350;PMS5003;62766;62.622;17.912;2023-06-22T11:55:07;34;34;
44350;PMS5003;62766;62.622;17.912;2023-06-22T11:57:37;34;34;
44350;PMS5003;62766;62.622;17.912;2023-06-22T12:00:07;32;32;
44350;PMS5003;62766;62.622;17.912;2023-06-22T12:02:36;36;36;
44350;PMS5003;62766;62.622;17.912;2023-06-22T12:05:04;39;38;
44350;PMS5003;62766;62.622;17.912;2023-06-22T12:07:33;32;32;
44350;PMS5003;62766;62.622;17.912;2023-06-22T12:10:02;33;33;
44350;PMS5003;62766;62.622;17.912;2023-06-22T12:12:31;40;40;
44350;PMS5003;62766;62.622;17.912;2023-06-22T12:15:01;36;35;
44350;PMS5003;62766;62.622;17.912;2023-06-22T12:17:29;36;36;
44350;PMS5003;62766;62.622;17.912;2023-06-22T12:19:59;40;40;
44350;PMS5003;62766;62.622;17.912;2023-06-22T12:22:28;30;29;
44350;PMS5003;62766;62.622;17.912;2023-06-22T12:24:56;37;36;
44350;PMS5003;62766;62.622;17.912;2023-06-22T12:27:25;35;35;
44350;PMS5003;62766;62.622;17.912;2023-06-22T12:29:53;35;35;
44350;PMS5003;62766;62.622;17.912;2023-06-22T12:32:22;24;23;
44350;PMS5003;62766;62.622;17.912;2023-06-22T12:34:50;14;14;
44350;PMS5003;62766;62.622;17.912;2023-06-22T12:37:18;11;11;
44350;PMS5003;62766;62.622;17.912;2023-06-22T12:39:46;13;13;
44350;PMS5003;62766;62.622;17.912;2023-06-22T12:42:15;9;9;
44350;PMS5003;62766;62.622;17.912;2023-06-22T12:44:43;11;11;
44350;PMS5003;62766;62.622;17.912;2023-06-22T12:47:11;13;13;
44350;PMS5003;62766;62.622;17.912;2023-06-22T12:49:39;15;15;
44350;PMS5003;62766;62.622;17.912;2023-06-22T12:52:09;12;12;
44350;PMS5003;62766;62.622;17.912;2023-06-22T12:54:38;12;12;
44350;PMS5003;62766;62.622;17.912;2023-06-22T12:57:06;12;12;
44350;PMS5003;62766;62.622;17.912;2023-06-22T12:59:34;10;10;
44350;PMS5003;62766;62.622;17.912;2023-06-22T13:02:02;11;11;
44350;PMS5003;62766;62.622;17.912;2023-06-22T13:04:32;14;13;
44350;PMS5003;62766;62.622;17.912;2023-06-22T13:07:00;13;13;
44350;PMS5003;62766;62.622;17.912;2023-06-22T13:09:30;12;12;
44350;PMS5003;62766;62.622;17.912;2023-06-22T13:11:59;11;11;
44350;PMS5003;62766;62.622;17.912;2023-06-22T13:14:28;8;8;
44350;PMS5003;62766;62.622;17.912;2023-06-22T13:16:56;10;10;
44350;PMS5003;62766;62.622;17.912;2023-06-22T13:19:24;9;9;
44350;PMS5003;62766;62.622;17.912;2023-06-22T13:21:52;8;8;
44350;PMS5003;62766;62.622;17.912;2023-06-22T13:24:20;9;9;
44350;PMS5003;62766;62.622;17.912;2023-06-22T13:26:48;7;7;
44350;PMS5003;62766;62.622;17.912;2023-06-22T13:29:16;7;7;
44350;PMS5003;62766;62.622;17.912;2023-06-22T13:31:44;6;6;
44350;PMS5003;62766;62.622;17.912;2023-06-22T13:34:12;9;9;
44350;PMS5003;62766;62.622;17.912;2023-06-22T13:36:40;5;5;
44350;PMS5003;62766;62.622;17.912;2023-06-22T13:39:08;6;6;
44350;PMS5003;62766;62.622;17.912;2023-06-22T13:41:36;5;5;
44350;PMS5003;62766;62.622;17.912;2023-06-22T13:44:04;4;4;
44350;PMS5003;62766;62.622;17.912;2023-06-22T13:46:32;2;2;
44350;PMS5003;62766;62.622;17.912;2023-06-22T13:49:00;2;2;
44350;PMS5003;62766;62.622;17.912;2023-06-22T13:51:28;3;2;
44350;PMS5003;62766;62.622;17.912;2023-06-22T13:53:56;2;2;
44350;PMS5003;62766;62.622;17.912;2023-06-22T13:56:24;1;1;
44350;PMS5003;62766;62.622;17.912;2023-06-22T13:58:52;2;2;
44350;PMS5003;62766;62.622;17.912;2023-06-22T14:01:20;2;1;
44350;PMS5003;62766;62.622;17.912;2023-06-22T14:03:48;1;1;
44350;PMS5003;62766;62.622;17.912;2023-06-22T14:06:16;1;1;
44350;PMS5003;62766;62.622;17.912;2023-06-22T14:08:44;1;1;
44350;PMS5003;62766;62.622;17.912;2023-06-22T14:11:12;1;1;
44350;PMS5003;62766;62.622;17.912;2023-06-22T14:13:40;0;0;
44350;PMS5003;62766;62.622;17.912;2023-06-22T14:16:08;0;0;
44350;PMS5003;62766;62.622;17.912;2023-06-22T14:18:36;1;1;
44350;PMS5003;62766;62.622;17.912;2023-06-22T14:21:04;1;1;
44350;PMS5003;62766;62.622;17.912;2023-06-22T14:23:32;2;1;
44350;PMS5003;62766;62.622;17.912;2023-06-22T14:26:01;1;1;
44350;PMS5003;62766;62.622;17.912;2023-06-22T14:28:28;0;0;
44350;PMS5003;62766;62.622;17.912;2023-06-22T14:30:57;2;0;
44350;PMS5003;62766;62.622;17.912;2023-06-22T14:33:26;1;1;
44350;PMS5003;62766;62.622;17.912;2023-06-22T14:35:54;1;1;
44350;PMS5003;62766;62.622;17.912;2023-06-22T14:38:22;0;0;
44350;PMS5003;62766;62.622;17.912;2023-06-22T14:40:50;0;0;
44350;PMS5003;62766;62.622;17.912;2023-06-22T14:43:18;0;0;
44350;PMS5003;62766;62.622;17.912;2023-06-22T14:45:46;0;0;
44350;PMS5003;62766;62.622;17.912;2023-06-22T14:48:14;0;0;
44350;PMS5003;62766;62.622;17.912;2023-06-22T14:50:42;0;0;
44350;PMS5003;62766;62.622;17.912;2023-06-22T14:53:10;0;0;
44350;PMS5003;62766;62.622;17.912;2023-06-22T14:55:39;0;0;
44350;PMS5003;62766;62.622;17.912;2023-06-22T14:58:09;0;0;
44350;PMS5003;62766;62.622;17.912;2023-06-22T15:00:38;2;0;
44350;PMS5003;62766;62.622;17.912;2023-06-22T15:03:06;0;0;
44350;PMS5003;62766;62.622;17.912;2023-06-22T15:05:34;1;1;
44350;PMS5003;62766;62.622;17.912;2023-06-22T15:08:02;0;0;
44350;PMS5003;62766;62.622;17.912;2023-06-22T15:10:30;0;0;
44350;PMS5003;62766;62.622;17.912;2023-06-22T15:12:58;1;1;
44350;PMS5003;62766;62.622;17.912;2023-06-22T15:15:28;1;1;
44350;PMS5003;62766;62.622;17.912;2023-06-22T15:17:56;0;0;
44350;PMS5003;62766;62.622;17.912;2023-06-22T15:20:24;1;1;
44350;PMS5003;62766;62.622;17.912;2023-06-22T15:22:52;1;1;
44350;PMS5003;62766;62.622;17.912;2023-06-22T15:25:20;1;1;
44350;PMS5003;62766;62.622;17.912;2023-06-22T15:27:48;1;1;
44350;PMS5003;62766;62.622;17.912;2023-06-22T15:30:16;1;1;
44350;PMS5003;62766;62.622;17.912;2023-06-22T15:32:44;1;0;
44350;PMS5003;62766;62.622;17.912;2023-06-22T15:35:13;1;1;
44350;PMS5003;62766;62.622;17.912;2023-06-22T15:37:42;1;1;
44350;PMS5003;62766;62.622;17.912;2023-06-22T15:40:10;1;1;
44350;PMS5003;62766;62.622;17.912;2023-06-22T15:42:39;1;1;
44350;PMS5003;62766;62.622;17.912;2023-06-22T15:45:08;1;1;
44350;PMS5003;62766;62.622;17.912;2023-06-22T15:47:37;3;1;
44350;PMS5003;62766;62.622;17.912;2023-06-22T15:50:05;2;2;
44350;PMS5003;62766;62.622;17.912;2023-06-22T15:52:34;3;3;
44350;PMS5003;62766;62.622;17.912;2023-06-22T15:55:02;1;1;
44350;PMS5003;62766;62.622;17.912;2023-06-22T15:57:31;0;0;
44350;PMS5003;62766;62.622;17.912;2023-06-22T16:00:00;2;2;
44350;PMS5003;62766;62.622;17.912;2023-06-22T16:03:24;1;1;
44350;PMS5003;62766;62.622;17.912;2023-06-22T16:05:53;1;1;
44350;PMS5003;62766;62.622;17.912;2023-06-22T16:08:21;2;2;
44350;PMS5003;62766;62.622;17.912;2023-06-22T16:10:51;1;1;
44350;PMS5003;62766;62.622;17.912;2023-06-22T16:13:19;0;0;
44350;PMS5003;62766;62.622;17.912;2023-06-22T16:15:47;2;2;
44350;PMS5003;62766;62.622;17.912;2023-06-22T16:18:15;2;2;
44350;PMS5003;62766;62.622;17.912;2023-06-22T16:20:43;0;0;
44350;PMS5003;62766;62.622;17.912;2023-06-22T16:23:11;0;0;